Paramaribo, Suriname

3:05 AM SRT op 29 maart 2015 (GMT -0300)
J.A. Pengel International | | Change Station
CLOSE
Current Station
Luchthaven
Location: Zandery,
Geometrische hoogte: 49 ft
Nabije weerstations

Hoogte 49 ft 5.45 °N, 55.19 °W | Updated 5 minutes ago

Mostly Cloudy
Merendeels bewolkt
73 °F
Voelt als 73 °F
N
1
Wind Variabel Wind van Variabel

Vandaag
Hoog -- | Laag -- °F
--% Kans op neerslag
Gisteren
Hoog -- | Laag -- °F
Precip. -- inches
6:40 AM 6:50 PM
Wassende maan, 68% visible
Druk 29.95 inches
Zicht 6.2 mijlen
Wolken Merendeels bewolkt 3000 ft
Dauwpunt 73 °F
Vochtigheid 100%
Neerslag 0.00 inches
Dikte sneeuw Niet beschikbaar.
UV 0 van de 12
Pollen Niet beschikbaar.
Luchtkwaliteit Niet beschikbaar.
Flu Activity Niet beschikbaar.
METAR SMJP 290600Z VRB01KT 9999 BKN030 23/23 Q1014 NOSIG

More Conditions Fewer Conditions

Druk 29.95 inches
Zicht 6.2 mijlen
Wolken Merendeels bewolkt 3000 ft
Dauwpunt 73 °F
Vochtigheid 100%
Neerslag 0.00 inches
Dikte sneeuw Niet beschikbaar.
UV 0 van de 12
Pollen Niet beschikbaar.
Luchtkwaliteit Niet beschikbaar.
Flu Activity Niet beschikbaar.
METAR SMJP 290600Z VRB01KT 9999 BKN030 23/23 Q1014 NOSIG

More Conditions Fewer Conditions

10-Day Weather Forecast

Almanac

Astronomie

Mar. 29, 2015 Opkomst Ondergang
Werkelijke tijd
Burgerlijke schemering
Nautische schemering
Astronomische schemering
Maan
Golflengte van het zichtbare licht
Daglengte
Tomorrow will be .
, % of the Moon is Illuminated

Extremen vandaag

Country Highs Country Lows

Community

WunderPhotos

Upload Photos

1,809,186 foto’s ge-upload!

WunderBlogs® & News

Nearby

Luchtkwaliteit

  Luchtkwaliteit LK-index Verontreinigende stof
Not available.

Dikte sneeuw

Station Depth Geometrische hoogte

Aardbevingen

Stad Distance Mag. Time & Date
Minimum magnitude displayed is 2.5.

Watertemperatuur langs de kust

Plaats Temperatuur

Stations

Nabije weerstations

Locatie station Temp. Gevoelstemperatuur Dauwpunt Vochtigheid Wind Precip. Hoogte Geactualiseerd Type